Time;durP1;ratioP1;P1;durP2;ratioP2;P2;SDS_P1;SDS_P2;PMS_P1;PMS_P2;Temp;Humidity;BMP_temperature;BMP_pressure;BME280_temperature;BME280_humidity;BME280_pressure;Samples;Min_cycle;Max_cycle;Signal;HPM_P1;HPM_P2
2023/12/11 00:01:06;;;;;;;0.63;0.55;;;9.10;99.90;;;;;;6187222;23;20017;-73
2023/12/11 00:03:31;;;;;;;1.20;0.68;;;9.10;99.90;;;;;;6214364;23;20052;-74
2023/12/11 00:05:57;;;;;;;0.10;0.10;;;9.10;99.90;;;;;;6162698;23;20017;-71
2023/12/11 00:08:22;;;;;;;0.40;0.40;;;9.10;99.90;;;;;;6213887;23;20012;-72
2023/12/11 00:10:48;;;;;;;0.55;0.55;;;9.20;99.90;;;;;;6189052;23;20016;-69
2023/12/11 00:13:14;;;;;;;0.05;0.05;;;9.20;99.90;;;;;;6215142;23;20432;-73
2023/12/11 00:15:40;;;;;;;0.45;0.40;;;9.10;99.90;;;;;;6187526;23;20008;-71
2023/12/11 00:18:05;;;;;;;2.13;0.63;;;9.10;99.90;;;;;;6215349;23;20008;-73
2023/12/11 00:20:34;;;;;;;28.08;0.93;;;9.10;99.90;;;;;;6162944;23;20062;-72
2023/12/11 00:23:00;;;;;;;2.83;2.65;;;9.10;99.90;;;;;;6188479;23;20340;-73
2023/12/11 00:25:29;;;;;;;0.10;0.10;;;9.20;99.90;;;;;;6187045;23;20012;-74
2023/12/11 00:27:55;;;;;;;0.10;0.10;;;9.20;99.90;;;;;;6185999;23;20016;-71
2023/12/11 00:30:21;;;;;;;0.10;0.10;;;9.20;99.90;;;;;;6216037;23;20023;-72
2023/12/11 00:32:46;;;;;;;2.90;2.25;;;9.20;99.90;;;;;;6214944;23;20040;-71
2023/12/11 00:35:12;;;;;;;0.57;0.30;;;9.20;99.90;;;;;;6213374;23;20344;-71
2023/12/11 00:37:37;;;;;;;0.52;0.52;;;9.30;99.90;;;;;;6182478;23;20348;-72
2023/12/11 00:40:04;;;;;;;2.28;0.35;;;9.30;99.90;;;;;;6185633;23;20739;-71
2023/12/11 00:42:29;;;;;;;0.17;0.15;;;9.30;99.90;;;;;;6213500;23;20020;-71
2023/12/11 00:44:58;;;;;;;0.20;0.20;;;9.30;99.90;;;;;;6212407;23;20012;-72
2023/12/11 00:47:23;;;;;;;6.13;0.35;;;9.30;99.90;;;;;;6187018;23;20371;-68
2023/12/11 00:49:49;;;;;;;0.75;0.75;;;9.20;99.90;;;;;;6188759;23;20024;-69
2023/12/11 00:52:16;;;;;;;8.85;0.85;;;9.20;99.90;;;;;;6217367;23;20009;-73
2023/12/11 00:54:42;;;;;;;1.40;0.65;;;9.10;99.90;;;;;;6189508;23;20008;-71
2023/12/11 00:57:07;;;;;;;0.52;0.52;;;9.00;99.90;;;;;;6163949;23;20055;-71
2023/12/11 00:59:34;;;;;;;0.30;0.30;;;9.00;99.90;;;;;;6187148;23;20024;-69
2023/12/11 01:01:59;;;;;;;6.38;0.98;;;9.00;99.90;;;;;;6188512;23;20169;-68
2023/12/11 01:04:25;;;;;;;0.73;0.52;;;9.00;99.90;;;;;;6215027;23;20020;-71
2023/12/11 01:06:51;;;;;;;0.82;0.60;;;8.90;99.90;;;;;;6163422;23;20063;-71
2023/12/11 01:09:16;;;;;;;0.08;0.08;;;8.90;99.90;;;;;;6187281;23;20016;-71
2023/12/11 01:11:48;;;;;;;4.45;0.25;;;8.90;99.90;;;;;;6163683;23;20020;-68
2023/12/11 01:14:13;;;;;;;1.35;0.25;;;8.90;99.90;;;;;;6188062;23;20016;-71
2023/12/11 01:17:10;;;;;;;0.38;0.35;;;8.90;99.90;;;;;;6186457;23;20099;-71
2023/12/11 01:19:35;;;;;;;32.33;1.70;;;8.90;99.90;;;;;;6188973;23;20012;-69
2023/12/11 01:22:01;;;;;;;0.85;0.68;;;8.90;99.90;;;;;;6187507;23;20023;-70
2023/12/11 01:24:30;;;;;;;0.00;0.00;;;8.90;99.90;;;;;;6214471;23;20092;-71
2023/12/11 01:26:56;;;;;;;0.30;0.30;;;8.90;99.90;;;;;;6188294;23;20024;-68
2023/12/11 01:29:21;;;;;;;2.13;0.32;;;8.90;99.90;;;;;;6186899;23;20013;-71
2023/12/11 01:31:47;;;;;;;4.47;0.80;;;8.90;99.90;;;;;;6187659;23;20344;-69
2023/12/11 01:34:12;;;;;;;0.28;0.28;;;8.90;99.90;;;;;;6213535;23;20062;-68
2023/12/11 01:36:39;;;;;;;2.40;0.35;;;8.90;99.90;;;;;;6186829;23;20594;-70
2023/12/11 01:39:04;;;;;;;0.57;0.57;;;8.90;99.90;;;;;;6186554;23;20009;-71
2023/12/11 01:41:30;;;;;;;5.82;0.60;;;8.90;99.90;;;;;;6187221;23;20335;-70
2023/12/11 01:43:56;;;;;;;0.20;0.20;;;8.90;99.90;;;;;;6187251;23;20075;-71
2023/12/11 01:46:23;;;;;;;2.55;0.73;;;8.90;99.90;;;;;;6187188;23;20048;-68
2023/12/11 01:48:49;;;;;;;0.80;0.52;;;8.90;99.90;;;;;;6213742;23;20016;-69
2023/12/11 01:51:16;;;;;;;1.58;0.50;;;8.90;99.90;;;;;;6186769;23;20340;-68
2023/12/11 01:53:45;;;;;;;8.43;0.47;;;9.00;99.90;;;;;;6213051;23;20005;-71
2023/12/11 01:56:11;;;;;;;4.13;0.80;;;9.00;99.90;;;;;;6184977;23;20332;-70
2023/12/11 01:58:38;;;;;;;0.43;0.40;;;9.00;99.90;;;;;;6181428;23;20012;-70
2023/12/11 02:01:06;;;;;;;7.03;0.75;;;9.10;99.90;;;;;;6184629;23;20013;-71
2023/12/11 02:03:31;;;;;;;0.47;0.45;;;9.10;99.90;;;;;;6186700;23;20024;-70
2023/12/11 02:06:00;;;;;;;0.20;0.20;;;9.10;99.90;;;;;;6185241;23;20020;-70
2023/12/11 02:08:26;;;;;;;0.35;0.35;;;9.10;99.90;;;;;;6186205;23;20017;-74
2023/12/11 02:10:51;;;;;;;0.10;0.10;;;9.10;99.90;;;;;;6213430;23;20017;-75
2023/12/11 02:13:17;;;;;;;0.95;0.95;;;9.20;99.90;;;;;;6185932;23;20012;-71
2023/12/11 02:15:44;;;;;;;1.92;1.75;;;9.20;99.90;;;;;;6186457;23;20012;-68
2023/12/11 02:18:11;;;;;;;2.08;0.50;;;9.20;99.90;;;;;;6185117;23;20025;-70
2023/12/11 02:20:38;;;;;;;9.98;0.80;;;9.10;99.90;;;;;;6185971;23;20048;-69
2023/12/11 02:23:06;;;;;;;1.10;0.57;;;9.10;99.90;;;;;;6184691;23;20017;-66
2023/12/11 02:25:33;;;;;;;0.10;0.10;;;9.10;99.90;;;;;;6212125;23;20016;-71
2023/12/11 02:27:59;;;;;;;0.10;0.10;;;9.10;99.90;;;;;;6186765;23;20020;-71
2023/12/11 02:30:24;;;;;;;0.40;0.40;;;9.10;99.90;;;;;;6185336;23;20012;-68
2023/12/11 02:32:53;;;;;;;1.85;0.35;;;9.10;99.90;;;;;;6212904;23;20084;-67
2023/12/11 02:35:19;;;;;;;1.23;0.82;;;9.10;99.90;;;;;;6184423;23;20067;-72
2023/12/11 02:37:44;;;;;;;0.75;0.73;;;9.20;99.90;;;;;;6209653;23;20046;-69
2023/12/11 02:40:10;;;;;;;2.33;0.93;;;9.20;99.90;;;;;;6210594;23;20017;-66
2023/12/11 02:42:35;;;;;;;4.03;1.08;;;9.20;99.90;;;;;;6185226;23;20115;-71
2023/12/11 02:45:01;;;;;;;0.35;0.30;;;9.30;99.90;;;;;;6211912;23;20087;-70
2023/12/11 02:47:26;;;;;;;1.38;1.27;;;9.20;99.90;;;;;;6212260;23;20088;-76
2023/12/11 02:49:52;;;;;;;5.75;0.55;;;9.30;99.90;;;;;;6183698;23;20059;-70
2023/12/11 02:52:17;;;;;;;0.65;0.55;;;9.30;99.90;;;;;;6214655;23;20328;-68
2023/12/11 02:54:43;;;;;;;0.65;0.65;;;9.30;99.90;;;;;;6182660;23;20515;-71
2023/12/11 02:57:09;;;;;;;3.55;1.02;;;9.30;99.90;;;;;;6187628;23;20004;-70
2023/12/11 02:59:35;;;;;;;0.20;0.20;;;9.30;99.90;;;;;;6186074;23;20179;-69
2023/12/11 03:02:00;;;;;;;5.82;2.03;;;9.30;99.90;;;;;;6186397;23;20420;-72
2023/12/11 03:04:26;;;;;;;13.20;0.95;;;9.30;99.90;;;;;;6185699;23;20460;-69
2023/12/11 03:06:52;;;;;;;3.42;0.95;;;9.30;99.90;;;;;;6213279;23;20023;-72
2023/12/11 03:09:17;;;;;;;2.05;0.57;;;9.30;99.90;;;;;;6213144;23;20016;-70
2023/12/11 03:11:43;;;;;;;4.47;1.75;;;9.30;99.90;;;;;;6186416;23;20012;-71
2023/12/11 03:14:08;;;;;;;0.10;0.10;;;9.30;99.90;;;;;;6185627;23;20317;-70
2023/12/11 03:16:35;;;;;;;0.20;0.20;;;9.30;99.90;;;;;;6212593;23;20383;-68
2023/12/11 03:19:00;;;;;;;0.30;0.30;;;9.30;99.90;;;;;;6181930;23;20016;-72
2023/12/11 03:21:26;;;;;;;3.53;2.08;;;9.30;99.90;;;;;;6185873;23;20013;-70
2023/12/11 03:23:52;;;;;;;4.18;1.02;;;9.30;99.90;;;;;;6183800;23;20017;-68
2023/12/11 03:26:17;;;;;;;1.25;0.13;;;9.40;99.90;;;;;;6184880;23;20063;-72
2023/12/11 03:28:43;;;;;;;24.52;1.35;;;9.30;99.90;;;;;;6209622;23;20090;-69
2023/12/11 03:31:08;;;;;;;0.20;0.20;;;9.30;99.90;;;;;;6185516;23;20333;-68
2023/12/11 03:33:34;;;;;;;1.98;0.85;;;9.30;99.90;;;;;;6184868;23;20523;-74
2023/12/11 03:35:59;;;;;;;1.95;0.45;;;9.30;99.90;;;;;;6185371;23;20039;-67
2023/12/11 03:38:25;;;;;;;3.08;0.95;;;9.30;99.90;;;;;;6211855;23;20027;-70
2023/12/11 03:40:50;;;;;;;2.88;0.40;;;9.30;99.90;;;;;;6185218;23;20020;-71
2023/12/11 03:43:16;;;;;;;5.25;2.83;;;9.40;99.90;;;;;;6212702;23;20028;-69
2023/12/11 03:45:41;;;;;;;0.10;0.10;;;9.40;99.90;;;;;;6209648;23;20016;-68
2023/12/11 03:48:07;;;;;;;6.35;1.83;;;9.40;99.90;;;;;;6184604;23;20052;-66
2023/12/11 03:50:33;;;;;;;0.85;0.82;;;9.40;99.90;;;;;;6211139;23;20393;-69
2023/12/11 03:52:58;;;;;;;0.10;0.10;;;9.30;99.90;;;;;;6186549;23;20013;-68
2023/12/11 03:55:24;;;;;;;1.27;0.85;;;9.30;99.90;;;;;;6212426;23;20514;-70
2023/12/11 03:57:49;;;;;;;12.82;0.55;;;9.30;99.90;;;;;;6211441;23;20016;-72
2023/12/11 04:00:15;;;;;;;0.88;0.88;;;9.30;99.90;;;;;;6209907;23;20495;-67
2023/12/11 04:02:41;;;;;;;0.50;0.50;;;9.30;99.90;;;;;;6157821;23;20016;-71
2023/12/11 04:05:07;;;;;;;1.52;0.57;;;9.30;99.90;;;;;;6183576;23;20012;-71
2023/12/11 04:07:32;;;;;;;5.25;0.28;;;9.30;99.90;;;;;;6211664;23;20013;-71
2023/12/11 04:09:58;;;;;;;4.40;0.73;;;9.30;99.90;;;;;;6184662;23;20115;-69
2023/12/11 04:12:23;;;;;;;0.20;0.20;;;9.20;99.90;;;;;;6184814;23;20052;-71
2023/12/11 04:14:49;;;;;;;0.10;0.10;;;9.20;99.90;;;;;;6182877;23;20107;-69
2023/12/11 04:17:14;;;;;;;0.20;0.20;;;9.20;99.90;;;;;;6186426;23;20008;-68
2023/12/11 04:19:40;;;;;;;2.65;1.50;;;9.20;99.90;;;;;;6184182;23;20008;-74
2023/12/11 04:22:05;;;;;;;10.63;1.17;;;9.20;99.90;;;;;;6184157;23;20047;-67
2023/12/11 04:24:31;;;;;;;1.52;0.40;;;9.20;99.90;;;;;;6183758;23;20016;-68
2023/12/11 04:26:56;;;;;;;0.32;0.17;;;9.20;99.90;;;;;;6185506;23;20017;-67
2023/12/11 04:29:22;;;;;;;0.28;0.28;;;9.20;99.90;;;;;;6186333;23;20016;-73
2023/12/11 04:31:47;;;;;;;3.55;0.65;;;9.20;99.90;;;;;;6184826;23;20031;-72
2023/12/11 04:34:13;;;;;;;27.02;0.80;;;9.20;99.90;;;;;;6184980;23;20016;-70
2023/12/11 04:36:42;;;;;;;1.20;1.15;;;9.30;99.90;;;;;;6185900;23;20087;-69
2023/12/11 04:39:07;;;;;;;0.30;0.30;;;9.20;99.90;;;;;;6182441;23;20016;-70
2023/12/11 04:41:34;;;;;;;5.72;1.05;;;9.20;99.90;;;;;;6210746;23;20119;-70
2023/12/11 04:44:00;;;;;;;0.35;0.28;;;9.20;99.90;;;;;;6159484;23;20507;-67
2023/12/11 04:46:26;;;;;;;1.58;1.48;;;9.20;99.90;;;;;;6183767;23;20115;-69
2023/12/11 04:48:52;;;;;;;1.85;0.38;;;9.20;99.90;;;;;;6187046;23;20048;-71
2023/12/11 04:51:17;;;;;;;0.00;0.00;;;9.10;99.90;;;;;;6186177;23;20016;-70
2023/12/11 04:53:43;;;;;;;4.80;0.50;;;9.10;99.90;;;;;;6185294;23;20412;-68
2023/12/11 04:56:09;;;;;;;0.00;0.00;;;9.10;99.90;;;;;;6185479;23;20012;-69
2023/12/11 04:58:34;;;;;;;4.70;0.40;;;9.10;99.90;;;;;;6187514;23;20013;-68
2023/12/11 05:01:00;;;;;;;0.00;0.00;;;9.00;99.90;;;;;;6185778;23;20052;-68
2023/12/11 05:03:25;;;;;;;0.38;0.32;;;9.10;99.90;;;;;;6187505;23;20019;-68
2023/12/11 05:05:51;;;;;;;1.55;0.93;;;9.10;99.90;;;;;;6213548;23;20012;-69
2023/12/11 05:08:16;;;;;;;1.95;1.55;;;9.10;99.90;;;;;;6215045;23;20077;-67
2023/12/11 05:10:42;;;;;;;0.30;0.30;;;9.10;99.90;;;;;;6213255;23;20020;-68
2023/12/11 05:13:07;;;;;;;1.73;0.45;;;9.20;99.90;;;;;;6187837;23;20280;-69
2023/12/11 05:15:33;;;;;;;0.03;0.03;;;9.20;99.90;;;;;;6188401;23;20040;-70
2023/12/11 05:17:58;;;;;;;7.57;1.58;;;9.20;99.90;;;;;;6213328;23;20054;-68
2023/12/11 05:20:24;;;;;;;0.00;0.00;;;9.20;99.90;;;;;;6186315;23;20013;-70
2023/12/11 05:22:50;;;;;;;1.58;1.48;;;9.20;99.90;;;;;;6186972;23;20017;-66
2023/12/11 05:25:15;;;;;;;0.47;0.47;;;9.20;99.90;;;;;;6160449;23;20016;-70
2023/12/11 05:27:41;;;;;;;0.40;0.40;;;9.20;99.90;;;;;;6185215;23;20019;-71
2023/12/11 05:30:08;;;;;;;7.53;0.20;;;9.20;99.90;;;;;;6211791;23;20095;-67
2023/12/11 05:32:33;;;;;;;0.00;0.00;;;9.20;99.90;;;;;;6213517;23;20020;-69
2023/12/11 05:34:59;;;;;;;6.18;0.30;;;9.20;99.90;;;;;;6186869;23;20008;-69
2023/12/11 05:37:24;;;;;;;0.08;0.08;;;9.10;99.90;;;;;;6186421;23;20048;-71
2023/12/11 05:39:50;;;;;;;0.20;0.20;;;9.10;99.90;;;;;;6186504;23;20030;-68
2023/12/11 05:42:15;;;;;;;0.73;0.45;;;9.10;99.90;;;;;;6187983;23;20016;-71
2023/12/11 05:44:41;;;;;;;1.40;1.33;;;9.10;99.90;;;;;;6214461;23;20012;-72
2023/12/11 05:47:06;;;;;;;0.68;0.68;;;9.00;99.90;;;;;;6187739;23;20090;-70
2023/12/11 05:49:32;;;;;;;0.65;0.35;;;9.00;99.90;;;;;;6213371;23;20309;-67
2023/12/11 05:51:57;;;;;;;0.22;0.22;;;9.10;99.90;;;;;;6186899;23;20097;-71
2023/12/11 05:54:23;;;;;;;1.17;1.08;;;9.10;99.90;;;;;;6185630;23;20052;-69
2023/12/11 05:56:48;;;;;;;1.45;0.30;;;9.10;99.90;;;;;;6213353;23;20019;-70
2023/12/11 05:59:14;;;;;;;2.75;0.20;;;9.10;99.90;;;;;;6187249;23;20020;-70
2023/12/11 06:01:40;;;;;;;1.20;1.10;;;9.20;99.90;;;;;;6182038;23;20019;-67
2023/12/11 06:04:05;;;;;;;0.32;0.32;;;9.20;99.90;;;;;;6209143;23;20012;-69
2023/12/11 06:06:31;;;;;;;7.88;0.30;;;9.30;99.90;;;;;;6184936;23;20017;-69
2023/12/11 06:08:56;;;;;;;0.10;0.10;;;9.30;99.90;;;;;;6186022;23;20325;-69
2023/12/11 06:11:22;;;;;;;0.10;0.10;;;9.30;99.90;;;;;;6184972;23;20024;-69
2023/12/11 06:13:47;;;;;;;0.22;0.20;;;9.30;99.90;;;;;;6159904;23;20444;-70
2023/12/11 06:16:13;;;;;;;0.10;0.10;;;9.30;99.90;;;;;;6184946;23;20143;-67
2023/12/11 06:18:39;;;;;;;2.08;0.80;;;9.30;99.90;;;;;;6187519;23;20019;-68
2023/12/11 06:21:05;;;;;;;0.75;0.52;;;9.30;99.90;;;;;;6186231;23;20089;-72
2023/12/11 06:23:30;;;;;;;0.47;0.47;;;9.30;99.90;;;;;;6187029;23;20012;-70
2023/12/11 06:25:56;;;;;;;2.08;1.17;;;9.30;99.90;;;;;;6161145;23;20027;-68
2023/12/11 06:28:21;;;;;;;2.67;0.32;;;9.30;99.90;;;;;;6185731;23;20016;-73
2023/12/11 06:30:47;;;;;;;0.17;0.17;;;9.30;99.90;;;;;;6213995;23;20027;-70
2023/12/11 06:33:12;;;;;;;4.47;0.63;;;9.30;99.90;;;;;;6188095;23;20344;-68
2023/12/11 06:35:38;;;;;;;0.00;0.00;;;9.30;99.90;;;;;;6186133;23;20051;-68
2023/12/11 06:38:03;;;;;;;1.15;0.20;;;9.30;99.90;;;;;;6213126;23;20083;-71
2023/12/11 06:40:29;;;;;;;1.85;0.40;;;9.30;99.90;;;;;;6212855;23;20359;-67
2023/12/11 06:42:54;;;;;;;0.20;0.10;;;9.20;99.90;;;;;;6184966;23;20091;-69
2023/12/11 06:45:56;;;;;;;2.83;0.65;;;9.20;99.90;;;;;;6187588;23;20017;-71
2023/12/11 06:48:22;;;;;;;1.08;0.50;;;9.20;99.90;;;;;;6186506;23;20067;-67
2023/12/11 06:51:04;;;;;;;0.43;0.43;;;9.30;99.90;;;;;;6213107;23;20021;-73
2023/12/11 06:53:30;;;;;;;3.85;2.78;;;9.20;99.90;;;;;;6185975;23;20008;-71
2023/12/11 06:56:04;;;;;;;0.03;0.03;;;9.20;99.90;;;;;;6186214;23;20031;-68
2023/12/11 06:58:30;;;;;;;9.93;1.45;;;9.20;99.90;;;;;;6184743;23;20012;-70
2023/12/11 07:00:56;;;;;;;0.30;0.30;;;9.20;99.90;;;;;;6210594;23;20016;-68
2023/12/11 07:03:21;;;;;;;0.38;0.38;;;9.20;99.90;;;;;;6212270;23;20016;-67
2023/12/11 07:05:47;;;;;;;0.32;0.30;;;9.10;99.90;;;;;;6187725;23;20012;-68
2023/12/11 07:08:13;;;;;;;0.28;0.28;;;9.10;99.90;;;;;;6188812;23;20012;-66
2023/12/11 07:10:39;;;;;;;0.30;0.30;;;9.10;99.90;;;;;;6188114;23;20017;-65
2023/12/11 07:13:27;;;;;;;0.15;0.15;;;9.10;99.90;;;;;;6187736;23;20024;-66
2023/12/11 07:15:53;;;;;;;0.30;0.17;;;9.10;99.90;;;;;;6213461;23;20079;-67
2023/12/11 07:18:18;;;;;;;0.52;0.52;;;9.10;99.90;;;;;;6213059;23;20131;-69
2023/12/11 07:20:44;;;;;;;0.28;0.20;;;9.00;99.90;;;;;;6188140;23;20060;-66
2023/12/11 07:23:10;;;;;;;0.20;0.20;;;9.00;99.90;;;;;;6184402;23;20020;-67
2023/12/11 07:25:36;;;;;;;0.00;0.00;;;9.00;99.90;;;;;;6213297;23;20043;-68
2023/12/11 07:28:02;;;;;;;0.32;0.32;;;9.00;99.90;;;;;;6184421;23;20078;-65
2023/12/11 07:30:28;;;;;;;1.35;0.70;;;9.10;99.90;;;;;;6184635;23;20028;-69
2023/12/11 07:32:53;;;;;;;0.10;0.10;;;9.00;99.90;;;;;;6182307;23;20012;-69
2023/12/11 07:35:20;;;;;;;20.50;1.70;;;9.00;99.90;;;;;;6183106;23;20030;-66
2023/12/11 07:37:45;;;;;;;0.00;0.00;;;9.00;99.90;;;;;;6183117;23;20427;-70
2023/12/11 07:40:11;;;;;;;0.20;0.10;;;9.00;99.90;;;;;;6185288;23;20017;-67
2023/12/11 07:42:37;;;;;;;0.30;0.30;;;9.00;99.90;;;;;;6210215;23;20024;-70
2023/12/11 07:45:06;;;;;;;0.98;0.40;;;9.00;99.90;;;;;;6183301;23;20608;-68
2023/12/11 07:47:32;;;;;;;0.30;0.30;;;9.00;99.90;;;;;;6184056;23;20063;-67
2023/12/11 07:49:58;;;;;;;0.25;0.25;;;9.00;99.90;;;;;;6211352;23;20013;-69
2023/12/11 07:52:29;;;;;;;0.25;0.10;;;8.90;99.90;;;;;;6212926;23;20011;-68
2023/12/11 07:54:54;;;;;;;8.88;0.50;;;9.00;99.90;;;;;;6184872;23;20088;-68
2023/12/11 07:57:20;;;;;;;0.10;0.10;;;9.00;99.90;;;;;;6212276;23;20375;-68
2023/12/11 07:59:45;;;;;;;0.13;0.13;;;8.90;99.90;;;;;;6211296;23;20087;-68
2023/12/11 08:02:11;;;;;;;3.50;0.70;;;9.00;99.90;;;;;;6182038;23;20021;-70
2023/12/11 08:04:40;;;;;;;0.30;0.30;;;9.00;99.90;;;;;;6182435;23;20028;-69
2023/12/11 08:07:06;;;;;;;0.10;0.10;;;9.00;99.90;;;;;;6182105;23;20052;-68
2023/12/11 08:09:36;;;;;;;0.10;0.10;;;9.00;99.90;;;;;;6183093;23;20072;-67
2023/12/11 08:12:02;;;;;;;0.73;0.73;;;9.00;99.90;;;;;;6183822;23;20017;-68
2023/12/11 08:14:28;;;;;;;4.72;1.13;;;9.00;99.90;;;;;;6182614;23;20024;-68
2023/12/11 08:16:54;;;;;;;0.47;0.47;;;9.00;99.90;;;;;;6186270;23;20013;-68
2023/12/11 08:19:20;;;;;;;0.08;0.08;;;9.00;99.90;;;;;;6185888;23;20012;-69
2023/12/11 08:21:46;;;;;;;0.20;0.20;;;9.00;99.90;;;;;;6185784;23;20078;-66
2023/12/11 08:24:12;;;;;;;0.38;0.20;;;9.00;99.90;;;;;;6213581;23;20017;-68
2023/12/11 08:26:38;;;;;;;0.10;0.10;;;9.00;99.90;;;;;;6213059;23;20023;-69
2023/12/11 08:29:03;;;;;;;0.10;0.10;;;9.00;99.90;;;;;;6188011;23;20132;-68
2023/12/11 08:31:30;;;;;;;0.22;0.22;;;9.00;99.90;;;;;;6214501;23;20009;-70
2023/12/11 08:33:56;;;;;;;0.90;0.80;;;9.10;99.90;;;;;;6186127;23;20023;-67
2023/12/11 08:36:21;;;;;;;0.10;0.10;;;9.00;99.90;;;;;;6186569;23;20016;-69
2023/12/11 08:38:48;;;;;;;0.52;0.35;;;9.10;99.90;;;;;;6186226;23;20044;-70
2023/12/11 08:41:22;;;;;;;1.50;0.45;;;9.10;99.90;;;;;;6182751;23;20095;-68
2023/12/11 08:43:51;;;;;;;9.55;0.50;;;9.10;99.90;;;;;;6187561;23;20095;-68
2023/12/11 08:46:17;;;;;;;0.10;0.10;;;9.10;99.90;;;;;;6214054;23;20380;-70
2023/12/11 08:48:46;;;;;;;0.25;0.25;;;9.10;99.90;;;;;;6187278;23;20050;-69
2023/12/11 08:51:12;;;;;;;0.82;0.82;;;9.10;99.90;;;;;;6213855;23;20651;-70
2023/12/11 08:53:37;;;;;;;0.75;0.47;;;9.20;99.90;;;;;;6213811;23;20013;-69
2023/12/11 08:56:03;;;;;;;1.38;0.90;;;9.20;99.90;;;;;;6187573;23;20075;-70
2023/12/11 08:58:29;;;;;;;0.20;0.10;;;9.20;99.90;;;;;;6185575;23;20009;-69
2023/12/11 09:00:54;;;;;;;0.08;0.08;;;9.20;99.90;;;;;;6188068;23;20025;-69
2023/12/11 09:03:21;;;;;;;0.10;0.10;;;9.20;99.90;;;;;;6185239;23;20020;-71
2023/12/11 09:05:46;;;;;;;0.40;0.40;;;9.30;99.90;;;;;;6186079;23;20103;-67
2023/12/11 09:08:12;;;;;;;0.43;0.40;;;9.30;99.90;;;;;;6211587;23;20049;-68
2023/12/11 09:10:38;;;;;;;3.30;0.43;;;9.30;99.90;;;;;;6185199;23;20495;-67
2023/12/11 09:13:04;;;;;;;2.58;0.63;;;9.30;99.90;;;;;;6186059;23;20016;-68
2023/12/11 09:15:30;;;;;;;2.08;0.70;;;9.30;99.90;;;;;;6183988;23;20008;-67
2023/12/11 09:17:56;;;;;;;0.25;0.20;;;9.40;99.90;;;;;;6210598;23;20052;-68
2023/12/11 09:20:21;;;;;;;11.18;1.00;;;9.40;99.90;;;;;;6185444;23;20020;-67
2023/12/11 09:22:47;;;;;;;1.35;0.60;;;9.40;99.90;;;;;;6208636;23;20020;-68
2023/12/11 09:25:14;;;;;;;0.65;0.65;;;9.50;99.90;;;;;;6182659;23;20012;-68
2023/12/11 09:27:41;;;;;;;0.30;0.30;;;9.50;99.90;;;;;;6183028;23;20024;-67
2023/12/11 09:30:10;;;;;;;1.88;1.77;;;9.60;99.90;;;;;;6211835;23;20012;-67
2023/12/11 09:32:35;;;;;;;0.30;0.30;;;9.50;99.90;;;;;;6212572;23;20016;-67
2023/12/11 09:35:01;;;;;;;8.43;0.68;;;9.50;99.90;;;;;;6211630;23;20309;-67
2023/12/11 09:37:27;;;;;;;4.28;0.38;;;9.60;99.90;;;;;;6186253;23;20008;-68
2023/12/11 09:39:52;;;;;;;0.65;0.40;;;9.60;99.90;;;;;;6183613;23;20015;-67
2023/12/11 09:42:20;;;;;;;0.82;0.68;;;9.70;99.90;;;;;;6185486;23;20024;-67
2023/12/11 09:44:46;;;;;;;0.20;0.20;;;9.70;99.90;;;;;;6211625;23;20329;-67
2023/12/11 09:47:29;;;;;;;0.10;0.10;;;9.80;99.90;;;;;;6185530;23;20063;-68
2023/12/11 09:49:55;;;;;;;0.22;0.22;;;9.80;99.90;;;;;;6185803;23;20048;-68
2023/12/11 09:52:22;;;;;;;0.28;0.28;;;9.80;99.90;;;;;;6185200;23;20091;-69
2023/12/11 09:54:47;;;;;;;0.55;0.13;;;9.90;99.90;;;;;;6212215;23;20017;-67
2023/12/11 09:57:15;;;;;;;0.60;0.60;;;9.90;99.90;;;;;;6183858;23;20453;-68
2023/12/11 09:59:42;;;;;;;2.92;0.30;;;9.90;99.90;;;;;;6185523;23;20151;-67
2023/12/11 10:02:15;;;;;;;0.63;0.63;;;9.90;99.90;;;;;;6186482;23;20012;-67
2023/12/11 10:05:03;;;;;;;3.13;0.80;;;9.90;99.90;;;;;;6183649;23;20040;-66
2023/12/11 10:07:33;;;;;;;5.35;0.82;;;9.90;99.90;;;;;;6185919;23;20016;-67
2023/12/11 10:10:23;;;;;;;4.85;0.32;;;9.90;99.90;;;;;;6185878;23;20332;-66
2023/12/11 10:12:49;;;;;;;0.08;0.08;;;9.90;99.90;;;;;;6169305;23;20082;-68
2023/12/11 10:15:26;;;;;;;0.17;0.13;;;9.90;99.90;;;;;;6185090;23;20013;-67
2023/12/11 10:18:06;;;;;;;0.00;0.00;;;9.80;99.90;;;;;;6185742;23;20009;-67
2023/12/11 10:20:34;;;;;;;0.17;0.17;;;9.80;99.90;;;;;;6212989;23;20012;-68
2023/12/11 10:23:11;;;;;;;0.10;0.10;;;9.70;99.90;;;;;;6184559;23;20078;-67
2023/12/11 10:25:41;;;;;;;0.30;0.30;;;9.70;99.90;;;;;;6185311;23;20094;-66
2023/12/11 10:28:08;;;;;;;2.85;0.35;;;9.60;99.90;;;;;;6184563;23;20016;-67
2023/12/11 10:30:54;;;;;;;4.32;1.15;;;9.60;99.90;;;;;;6212591;23;20013;-67
2023/12/11 10:33:21;;;;;;;0.63;0.38;;;9.50;99.90;;;;;;6184740;23;20016;-69
2023/12/11 10:35:47;;;;;;;0.00;0.00;;;9.50;99.90;;;;;;6184219;23;20009;-68
2023/12/11 10:38:20;;;;;;;0.80;0.52;;;9.60;99.90;;;;;;6180840;23;20650;-66
2023/12/11 10:40:46;;;;;;;0.38;0.30;;;9.50;99.90;;;;;;6182732;23;20150;-66
2023/12/11 10:43:11;;;;;;;0.10;0.10;;;9.60;99.90;;;;;;6184233;23;20095;-66
2023/12/11 10:45:37;;;;;;;0.10;0.10;;;9.50;99.90;;;;;;6211155;23;20066;-65
2023/12/11 10:48:03;;;;;;;1.08;0.40;;;9.50;99.90;;;;;;6209972;23;20436;-67
2023/12/11 10:50:31;;;;;;;0.40;0.40;;;9.40;99.90;;;;;;6183652;23;20016;-67
2023/12/11 10:53:00;;;;;;;1.60;0.52;;;9.40;99.90;;;;;;6181591;23;20343;-66
2023/12/11 10:55:25;;;;;;;5.85;0.20;;;9.50;99.90;;;;;;6183437;23;20020;-66
2023/12/11 10:57:52;;;;;;;0.00;0.00;;;9.50;99.90;;;;;;6209654;23;20004;-66
2023/12/11 11:00:20;;;;;;;0.05;0.05;;;9.50;99.90;;;;;;6210301;23;20439;-66
2023/12/11 11:02:48;;;;;;;0.40;0.40;;;9.60;99.90;;;;;;6208921;23;20023;-67
2023/12/11 11:05:14;;;;;;;0.25;0.25;;;9.60;99.90;;;;;;6183876;23;20044;-67
2023/12/11 11:07:51;;;;;;;0.20;0.20;;;9.60;99.90;;;;;;6183303;23;20017;-67
2023/12/11 11:10:20;;;;;;;4.28;0.70;;;9.70;99.90;;;;;;6184088;23;20012;-66
2023/12/11 11:13:21;;;;;;;0.20;0.20;;;9.70;99.90;;;;;;6184045;23;20087;-67
2023/12/11 11:15:54;;;;;;;0.32;0.32;;;9.70;99.90;;;;;;6183165;23;20048;-66
2023/12/11 11:18:20;;;;;;;0.30;0.30;;;9.70;99.90;;;;;;6184681;23;20447;-68
2023/12/11 11:21:10;;;;;;;0.43;0.20;;;9.70;99.90;;;;;;6184817;23;20027;-68
2023/12/11 11:23:48;;;;;;;0.10;0.10;;;9.70;99.90;;;;;;6184325;23;20471;-67
2023/12/11 11:26:35;;;;;;;0.17;0.17;;;9.60;99.90;;;;;;6210731;23;20024;-67
2023/12/11 11:29:02;;;;;;;1.23;0.57;;;9.50;99.90;;;;;;6184014;23;20083;-67
2023/12/11 11:31:49;;;;;;;1.35;0.73;;;9.50;99.90;;;;;;6182112;23;20120;-66
2023/12/11 11:34:14;;;;;;;1.15;0.65;;;9.50;99.90;;;;;;6157996;23;20016;-68
2023/12/11 11:36:47;;;;;;;0.13;0.13;;;9.40;99.90;;;;;;6211401;23;20459;-69
2023/12/11 11:39:13;;;;;;;;;;;9.40;99.90;;;;;;6182457;23;20016;-68
2023/12/11 11:41:38;;;;;;;0.40;0.40;;;9.40;99.90;;;;;;6212021;23;19916;-69
2023/12/11 11:44:06;;;;;;;1.40;0.35;;;9.30;99.90;;;;;;6184120;23;20019;-66
2023/12/11 11:46:50;;;;;;;0.30;0.30;;;9.30;99.90;;;;;;6184745;23;20067;-69
2023/12/11 11:49:35;;;;;;;1.67;0.52;;;9.30;99.90;;;;;;6182692;23;20020;-69
2023/12/11 11:52:09;;;;;;;9.05;0.80;;;9.30;99.90;;;;;;6211521;23;20045;-68
2023/12/11 11:54:38;;;;;;;0.47;0.47;;;9.40;99.90;;;;;;6208865;23;20016;-68
2023/12/11 11:57:06;;;;;;;0.10;0.10;;;9.40;99.90;;;;;;6184648;23;20071;-67
2023/12/11 11:59:40;;;;;;;0.38;0.38;;;9.40;99.90;;;;;;6182764;23;20013;-68
2023/12/11 12:02:06;;;;;;;4.38;0.43;;;9.40;99.90;;;;;;6183647;23;20019;-68
2023/12/11 12:04:34;;;;;;;0.10;0.10;;;9.40;99.90;;;;;;6181908;23;20016;-67
2023/12/11 12:07:05;;;;;;;0.30;0.30;;;9.40;99.90;;;;;;6210985;23;20016;-67
2023/12/11 12:09:32;;;;;;;0.30;0.30;;;9.40;99.90;;;;;;6209535;23;20013;-67
2023/12/11 12:11:58;;;;;;;0.57;0.20;;;9.40;99.90;;;;;;6183358;23;20025;-68
2023/12/11 12:14:27;;;;;;;0.10;0.10;;;9.40;99.90;;;;;;6209491;23;20032;-69
2023/12/11 12:16:53;;;;;;;1.38;0.80;;;9.40;99.90;;;;;;6184352;23;20040;-69
2023/12/11 12:19:32;;;;;;;0.00;0.00;;;9.40;99.90;;;;;;6181549;23;20019;-68
2023/12/11 12:21:58;;;;;;;0.30;0.30;;;9.30;99.90;;;;;;6183921;23;20116;-68
2023/12/11 12:24:25;;;;;;;0.15;0.15;;;9.20;99.90;;;;;;6208402;23;20429;-67
2023/12/11 12:27:00;;;;;;;0.43;0.43;;;9.20;99.90;;;;;;6183564;23;20013;-67
2023/12/11 12:29:27;;;;;;;0.20;0.20;;;9.20;99.90;;;;;;6178553;23;20113;-67
2023/12/11 12:31:53;;;;;;;0.90;0.55;;;9.10;99.90;;;;;;6209197;23;20393;-68
2023/12/11 12:34:19;;;;;;;0.90;0.40;;;9.20;99.90;;;;;;6179866;23;20100;-67
2023/12/11 12:36:45;;;;;;;0.17;0.10;;;9.20;99.90;;;;;;6157344;23;20043;-68
2023/12/11 12:39:13;;;;;;;0.20;0.20;;;9.20;99.90;;;;;;6181213;23;20020;-68
2023/12/11 12:41:39;;;;;;;2.28;0.10;;;9.20;99.90;;;;;;6183531;23;20100;-68
2023/12/11 12:44:04;;;;;;;0.10;0.10;;;9.20;99.90;;;;;;6182571;23;20020;-67
2023/12/11 12:46:43;;;;;;;0.10;0.10;;;9.20;99.90;;;;;;6182698;23;20103;-66
2023/12/11 12:49:08;;;;;;;4.45;0.40;;;9.30;99.90;;;;;;6208303;23;20020;-68
2023/12/11 12:51:43;;;;;;;0.08;0.08;;;9.30;99.90;;;;;;6184848;23;20017;-67
2023/12/11 12:54:10;;;;;;;0.00;0.00;;;9.40;99.90;;;;;;6181973;23;20989;-67
2023/12/11 12:56:36;;;;;;;0.20;0.20;;;9.40;99.90;;;;;;6174034;23;20351;-68
2023/12/11 12:59:02;;;;;;;0.10;0.10;;;9.30;99.90;;;;;;6207801;23;20016;-68